sensor_id;sensor_type;location;lat;lon;timestamp;temperature;humidity
21298;DHT22;10808;48.010;11.326;2022-12-22T00:01:38;6.30;99.90
21298;DHT22;10808;48.010;11.326;2022-12-22T00:04:23;6.30;99.90
21298;DHT22;10808;48.010;11.326;2022-12-22T00:07:07;6.30;99.90
21298;DHT22;10808;48.010;11.326;2022-12-22T00:09:52;6.30;99.90
21298;DHT22;10808;48.010;11.326;2022-12-22T00:12:37;6.30;99.90
21298;DHT22;10808;48.010;11.326;2022-12-22T00:15:22;6.30;99.90
21298;DHT22;10808;48.010;11.326;2022-12-22T00:18:13;6.20;99.90
21298;DHT22;10808;48.010;11.326;2022-12-22T00:20:58;6.30;99.90
21298;DHT22;10808;48.010;11.326;2022-12-22T00:27:14;6.30;99.90
21298;DHT22;10808;48.010;11.326;2022-12-22T00:30:00;6.30;99.90
21298;DHT22;10808;48.010;11.326;2022-12-22T00:35:58;6.20;99.90
21298;DHT22;10808;48.010;11.326;2022-12-22T00:38:42;6.20;99.90
21298;DHT22;10808;48.010;11.326;2022-12-22T00:41:27;6.20;99.90
21298;DHT22;10808;48.010;11.326;2022-12-22T00:44:12;6.20;99.90
21298;DHT22;10808;48.010;11.326;2022-12-22T00:46:56;6.20;99.90
21298;DHT22;10808;48.010;11.326;2022-12-22T00:49:44;6.20;99.90
21298;DHT22;10808;48.010;11.326;2022-12-22T00:52:29;6.30;99.90
21298;DHT22;10808;48.010;11.326;2022-12-22T00:55:18;6.30;99.90
21298;DHT22;10808;48.010;11.326;2022-12-22T00:58:07;6.30;99.90
21298;DHT22;10808;48.010;11.326;2022-12-22T01:00:54;6.20;99.90
21298;DHT22;10808;48.010;11.326;2022-12-22T01:03:39;6.30;99.90
21298;DHT22;10808;48.010;11.326;2022-12-22T01:06:24;6.20;99.90
21298;DHT22;10808;48.010;11.326;2022-12-22T01:09:12;6.20;99.90
21298;DHT22;10808;48.010;11.326;2022-12-22T01:11:56;6.20;99.90
21298;DHT22;10808;48.010;11.326;2022-12-22T01:14:41;6.20;99.90
21298;DHT22;10808;48.010;11.326;2022-12-22T01:17:25;6.20;99.90
21298;DHT22;10808;48.010;11.326;2022-12-22T01:20:10;6.20;99.90
21298;DHT22;10808;48.010;11.326;2022-12-22T01:22:54;6.20;99.90
21298;DHT22;10808;48.010;11.326;2022-12-22T01:25:39;6.20;99.90
21298;DHT22;10808;48.010;11.326;2022-12-22T01:28:24;6.20;99.90
21298;DHT22;10808;48.010;11.326;2022-12-22T01:31:29;6.20;99.90
21298;DHT22;10808;48.010;11.326;2022-12-22T01:34:14;6.20;99.90
21298;DHT22;10808;48.010;11.326;2022-12-22T01:36:59;6.20;99.90
21298;DHT22;10808;48.010;11.326;2022-12-22T01:39:43;6.20;99.90
21298;DHT22;10808;48.010;11.326;2022-12-22T01:42:30;6.20;99.90
21298;DHT22;10808;48.010;11.326;2022-12-22T01:48:10;6.10;99.90
21298;DHT22;10808;48.010;11.326;2022-12-22T01:50:56;6.10;99.90
21298;DHT22;10808;48.010;11.326;2022-12-22T01:53:41;6.10;99.90
21298;DHT22;10808;48.010;11.326;2022-12-22T01:56:26;6.10;99.90
21298;DHT22;10808;48.010;11.326;2022-12-22T01:59:11;6.00;99.90
21298;DHT22;10808;48.010;11.326;2022-12-22T02:01:56;6.00;99.90
21298;DHT22;10808;48.010;11.326;2022-12-22T02:04:44;6.00;99.90
21298;DHT22;10808;48.010;11.326;2022-12-22T02:07:57;6.00;99.90
21298;DHT22;10808;48.010;11.326;2022-12-22T02:11:09;5.90;99.90
21298;DHT22;10808;48.010;11.326;2022-12-22T02:17:16;5.90;99.90
21298;DHT22;10808;48.010;11.326;2022-12-22T02:26:43;6.00;99.90
21298;DHT22;10808;48.010;11.326;2022-12-22T02:29:35;6.00;99.90
21298;DHT22;10808;48.010;11.326;2022-12-22T02:32:22;6.00;99.90
21298;DHT22;10808;48.010;11.326;2022-12-22T02:35:15;6.10;99.90
21298;DHT22;10808;48.010;11.326;2022-12-22T02:38:12;6.10;99.90
21298;DHT22;10808;48.010;11.326;2022-12-22T02:41:41;6.20;99.90
21298;DHT22;10808;48.010;11.326;2022-12-22T02:44:35;6.30;99.90
21298;DHT22;10808;48.010;11.326;2022-12-22T02:50:19;6.70;99.90
21298;DHT22;10808;48.010;11.326;2022-12-22T02:53:05;6.80;99.90
21298;DHT22;10808;48.010;11.326;2022-12-22T02:55:59;7.00;99.90
21298;DHT22;10808;48.010;11.326;2022-12-22T02:58:45;7.10;99.90
21298;DHT22;10808;48.010;11.326;2022-12-22T03:01:30;7.30;99.90
21298;DHT22;10808;48.010;11.326;2022-12-22T03:04:15;7.40;99.90
21298;DHT22;10808;48.010;11.326;2022-12-22T03:06:59;7.60;99.90
21298;DHT22;10808;48.010;11.326;2022-12-22T03:09:44;7.70;99.90
21298;DHT22;10808;48.010;11.326;2022-12-22T03:12:28;7.80;99.90
21298;DHT22;10808;48.010;11.326;2022-12-22T03:15:15;7.90;99.90
21298;DHT22;10808;48.010;11.326;2022-12-22T03:18:06;8.00;99.90
21298;DHT22;10808;48.010;11.326;2022-12-22T03:20:51;8.00;99.90
21298;DHT22;10808;48.010;11.326;2022-12-22T03:23:35;8.00;99.90
21298;DHT22;10808;48.010;11.326;2022-12-22T03:26:20;8.10;99.90
21298;DHT22;10808;48.010;11.326;2022-12-22T03:28:46;8.20;99.90
21298;DHT22;10808;48.010;11.326;2022-12-22T03:31:12;8.20;99.90
21298;DHT22;10808;48.010;11.326;2022-12-22T03:33:38;8.20;99.90
21298;DHT22;10808;48.010;11.326;2022-12-22T03:36:05;8.30;99.90
21298;DHT22;10808;48.010;11.326;2022-12-22T03:38:32;8.30;99.90
21298;DHT22;10808;48.010;11.326;2022-12-22T03:40:58;8.30;99.90
21298;DHT22;10808;48.010;11.326;2022-12-22T03:43:24;8.30;99.90
21298;DHT22;10808;48.010;11.326;2022-12-22T03:46:11;8.30;99.90
21298;DHT22;10808;48.010;11.326;2022-12-22T03:48:57;8.30;99.90
21298;DHT22;10808;48.010;11.326;2022-12-22T03:51:41;8.40;99.90
21298;DHT22;10808;48.010;11.326;2022-12-22T03:54:09;8.40;99.90
21298;DHT22;10808;48.010;11.326;2022-12-22T03:56:35;8.40;99.90
21298;DHT22;10808;48.010;11.326;2022-12-22T03:59:02;8.40;99.90
21298;DHT22;10808;48.010;11.326;2022-12-22T04:01:28;8.40;99.90
21298;DHT22;10808;48.010;11.326;2022-12-22T04:03:54;8.40;99.90
21298;DHT22;10808;48.010;11.326;2022-12-22T04:06:20;8.40;99.90
21298;DHT22;10808;48.010;11.326;2022-12-22T04:08:46;8.40;99.90
21298;DHT22;10808;48.010;11.326;2022-12-22T04:11:15;8.40;99.90
21298;DHT22;10808;48.010;11.326;2022-12-22T04:13:59;8.40;99.90
21298;DHT22;10808;48.010;11.326;2022-12-22T04:16:26;8.40;99.90
21298;DHT22;10808;48.010;11.326;2022-12-22T04:18:52;8.40;99.90
21298;DHT22;10808;48.010;11.326;2022-12-22T04:21:18;8.40;99.90
21298;DHT22;10808;48.010;11.326;2022-12-22T04:23:44;8.40;99.90
21298;DHT22;10808;48.010;11.326;2022-12-22T04:26:10;8.40;99.90
21298;DHT22;10808;48.010;11.326;2022-12-22T04:28:40;8.40;99.90
21298;DHT22;10808;48.010;11.326;2022-12-22T04:31:06;8.40;99.90
21298;DHT22;10808;48.010;11.326;2022-12-22T04:33:32;8.50;99.90
21298;DHT22;10808;48.010;11.326;2022-12-22T04:36:00;8.60;99.90
21298;DHT22;10808;48.010;11.326;2022-12-22T04:38:29;8.60;99.90
21298;DHT22;10808;48.010;11.326;2022-12-22T04:41:07;8.70;99.90
21298;DHT22;10808;48.010;11.326;2022-12-22T04:43:33;8.80;99.90
21298;DHT22;10808;48.010;11.326;2022-12-22T04:46:00;8.80;99.90
21298;DHT22;10808;48.010;11.326;2022-12-22T04:48:27;8.90;99.90
21298;DHT22;10808;48.010;11.326;2022-12-22T04:54:14;9.00;99.90
21298;DHT22;10808;48.010;11.326;2022-12-22T04:56:40;9.10;99.90
21298;DHT22;10808;48.010;11.326;2022-12-22T04:59:06;9.10;99.90
21298;DHT22;10808;48.010;11.326;2022-12-22T05:01:32;9.10;99.90
21298;DHT22;10808;48.010;11.326;2022-12-22T05:03:58;9.10;99.90
21298;DHT22;10808;48.010;11.326;2022-12-22T05:06:24;9.20;99.90
21298;DHT22;10808;48.010;11.326;2022-12-22T05:08:50;9.20;99.90
21298;DHT22;10808;48.010;11.326;2022-12-22T05:11:16;9.20;99.90
21298;DHT22;10808;48.010;11.326;2022-12-22T05:13:42;9.30;99.90
21298;DHT22;10808;48.010;11.326;2022-12-22T05:16:11;9.30;99.90
21298;DHT22;10808;48.010;11.326;2022-12-22T05:18:38;9.30;99.90
21298;DHT22;10808;48.010;11.326;2022-12-22T05:21:07;9.30;99.90
21298;DHT22;10808;48.010;11.326;2022-12-22T05:23:34;9.20;99.90
21298;DHT22;10808;48.010;11.326;2022-12-22T05:26:00;9.20;99.90
21298;DHT22;10808;48.010;11.326;2022-12-22T05:28:26;9.30;99.90
21298;DHT22;10808;48.010;11.326;2022-12-22T05:31:08;9.20;99.90
21298;DHT22;10808;48.010;11.326;2022-12-22T05:33:35;9.30;99.90
21298;DHT22;10808;48.010;11.326;2022-12-22T05:36:01;9.30;99.90
21298;DHT22;10808;48.010;11.326;2022-12-22T05:38:27;9.30;99.90
21298;DHT22;10808;48.010;11.326;2022-12-22T05:40:53;9.30;99.90
21298;DHT22;10808;48.010;11.326;2022-12-22T05:43:19;9.30;99.90
21298;DHT22;10808;48.010;11.326;2022-12-22T05:46:01;9.30;99.90
21298;DHT22;10808;48.010;11.326;2022-12-22T05:48:27;9.30;99.90
21298;DHT22;10808;48.010;11.326;2022-12-22T05:50:53;9.20;99.90
21298;DHT22;10808;48.010;11.326;2022-12-22T05:53:19;9.30;99.90
21298;DHT22;10808;48.010;11.326;2022-12-22T05:55:46;9.30;99.90
21298;DHT22;10808;48.010;11.326;2022-12-22T05:58:12;9.30;99.90
21298;DHT22;10808;48.010;11.326;2022-12-22T06:00:38;9.30;99.90
21298;DHT22;10808;48.010;11.326;2022-12-22T06:03:04;9.40;99.90
21298;DHT22;10808;48.010;11.326;2022-12-22T06:05:30;9.40;99.90
21298;DHT22;10808;48.010;11.326;2022-12-22T06:07:56;9.40;99.90
21298;DHT22;10808;48.010;11.326;2022-12-22T06:10:22;9.40;99.90
21298;DHT22;10808;48.010;11.326;2022-12-22T06:12:48;9.40;99.90
21298;DHT22;10808;48.010;11.326;2022-12-22T06:15:14;9.40;99.90
21298;DHT22;10808;48.010;11.326;2022-12-22T06:17:40;9.40;99.90
21298;DHT22;10808;48.010;11.326;2022-12-22T06:20:07;9.40;99.90
21298;DHT22;10808;48.010;11.326;2022-12-22T06:22:33;9.40;99.90
21298;DHT22;10808;48.010;11.326;2022-12-22T06:25:00;9.50;99.90
21298;DHT22;10808;48.010;11.326;2022-12-22T06:27:26;9.40;99.90
21298;DHT22;10808;48.010;11.326;2022-12-22T06:29:52;9.40;99.90
21298;DHT22;10808;48.010;11.326;2022-12-22T06:32:18;9.50;99.90
21298;DHT22;10808;48.010;11.326;2022-12-22T06:34:44;9.50;99.90
21298;DHT22;10808;48.010;11.326;2022-12-22T06:37:10;9.50;99.90
21298;DHT22;10808;48.010;11.326;2022-12-22T06:39:36;9.50;99.90
21298;DHT22;10808;48.010;11.326;2022-12-22T06:42:02;9.40;99.90
21298;DHT22;10808;48.010;11.326;2022-12-22T06:44:46;9.50;99.90
21298;DHT22;10808;48.010;11.326;2022-12-22T06:47:17;9.50;99.90
21298;DHT22;10808;48.010;11.326;2022-12-22T06:50:00;9.50;99.90
21298;DHT22;10808;48.010;11.326;2022-12-22T06:52:26;9.50;99.90
21298;DHT22;10808;48.010;11.326;2022-12-22T06:54:52;9.60;99.90
21298;DHT22;10808;48.010;11.326;2022-12-22T06:57:18;9.60;99.90
21298;DHT22;10808;48.010;11.326;2022-12-22T06:59:44;9.70;99.90
21298;DHT22;10808;48.010;11.326;2022-12-22T07:02:10;9.60;99.90
21298;DHT22;10808;48.010;11.326;2022-12-22T07:04:36;9.70;99.90
21298;DHT22;10808;48.010;11.326;2022-12-22T07:07:03;9.70;99.90
21298;DHT22;10808;48.010;11.326;2022-12-22T07:09:29;9.70;99.90
21298;DHT22;10808;48.010;11.326;2022-12-22T07:11:55;9.70;99.90
21298;DHT22;10808;48.010;11.326;2022-12-22T07:14:21;9.70;99.90
21298;DHT22;10808;48.010;11.326;2022-12-22T07:16:48;9.70;99.90
21298;DHT22;10808;48.010;11.326;2022-12-22T07:19:14;9.60;99.90
21298;DHT22;10808;48.010;11.326;2022-12-22T07:21:40;9.60;99.90
21298;DHT22;10808;48.010;11.326;2022-12-22T07:24:06;9.60;99.90
21298;DHT22;10808;48.010;11.326;2022-12-22T07:26:32;9.60;99.90
21298;DHT22;10808;48.010;11.326;2022-12-22T07:28:58;9.60;99.90
21298;DHT22;10808;48.010;11.326;2022-12-22T07:31:24;9.50;99.90
21298;DHT22;10808;48.010;11.326;2022-12-22T07:33:50;9.50;99.90
21298;DHT22;10808;48.010;11.326;2022-12-22T07:36:18;9.50;99.90
21298;DHT22;10808;48.010;11.326;2022-12-22T07:38:47;9.40;99.90
21298;DHT22;10808;48.010;11.326;2022-12-22T07:41:15;9.40;99.90
21298;DHT22;10808;48.010;11.326;2022-12-22T07:44:00;9.40;99.90
21298;DHT22;10808;48.010;11.326;2022-12-22T07:46:28;9.40;99.90
21298;DHT22;10808;48.010;11.326;2022-12-22T07:48:55;9.40;99.90
21298;DHT22;10808;48.010;11.326;2022-12-22T07:51:41;9.40;99.90
21298;DHT22;10808;48.010;11.326;2022-12-22T07:54:08;9.30;99.90
21298;DHT22;10808;48.010;11.326;2022-12-22T07:56:35;9.40;99.90
21298;DHT22;10808;48.010;11.326;2022-12-22T07:59:02;9.40;99.90
21298;DHT22;10808;48.010;11.326;2022-12-22T08:01:30;9.40;99.90
21298;DHT22;10808;48.010;11.326;2022-12-22T08:03:58;9.40;99.90
21298;DHT22;10808;48.010;11.326;2022-12-22T08:06:25;9.40;99.90
21298;DHT22;10808;48.010;11.326;2022-12-22T08:08:51;9.40;99.90
21298;DHT22;10808;48.010;11.326;2022-12-22T08:11:18;9.50;99.90
21298;DHT22;10808;48.010;11.326;2022-12-22T08:13:44;9.50;99.90
21298;DHT22;10808;48.010;11.326;2022-12-22T08:16:12;9.60;99.90
21298;DHT22;10808;48.010;11.326;2022-12-22T08:18:39;9.70;99.90
21298;DHT22;10808;48.010;11.326;2022-12-22T08:21:11;9.70;99.90
21298;DHT22;10808;48.010;11.326;2022-12-22T08:23:38;9.70;99.90
21298;DHT22;10808;48.010;11.326;2022-12-22T08:26:12;9.90;99.90
21298;DHT22;10808;48.010;11.326;2022-12-22T08:28:43;9.90;99.90
21298;DHT22;10808;48.010;11.326;2022-12-22T08:31:12;10.00;99.90
21298;DHT22;10808;48.010;11.326;2022-12-22T08:33:38;10.10;99.90
21298;DHT22;10808;48.010;11.326;2022-12-22T08:36:04;10.20;99.90
21298;DHT22;10808;48.010;11.326;2022-12-22T08:38:31;10.30;99.90
21298;DHT22;10808;48.010;11.326;2022-12-22T08:40:58;10.30;99.90
21298;DHT22;10808;48.010;11.326;2022-12-22T08:43:25;10.40;99.90
21298;DHT22;10808;48.010;11.326;2022-12-22T08:45:53;10.40;99.90
21298;DHT22;10808;48.010;11.326;2022-12-22T08:48:19;10.40;99.90
21298;DHT22;10808;48.010;11.326;2022-12-22T08:50:45;10.50;99.90
21298;DHT22;10808;48.010;11.326;2022-12-22T08:53:11;10.50;99.90
21298;DHT22;10808;48.010;11.326;2022-12-22T08:55:37;10.50;99.90
21298;DHT22;10808;48.010;11.326;2022-12-22T08:58:03;10.60;99.90
21298;DHT22;10808;48.010;11.326;2022-12-22T09:00:48;10.50;99.90
21298;DHT22;10808;48.010;11.326;2022-12-22T09:03:14;10.60;99.90
21298;DHT22;10808;48.010;11.326;2022-12-22T09:05:47;10.60;99.90
21298;DHT22;10808;48.010;11.326;2022-12-22T09:08:13;10.70;99.90
21298;DHT22;10808;48.010;11.326;2022-12-22T09:10:41;10.60;99.90
21298;DHT22;10808;48.010;11.326;2022-12-22T09:13:08;10.60;99.90
21298;DHT22;10808;48.010;11.326;2022-12-22T09:15:35;10.70;99.90
21298;DHT22;10808;48.010;11.326;2022-12-22T09:18:02;10.70;99.90
21298;DHT22;10808;48.010;11.326;2022-12-22T09:20:28;10.70;99.90
21298;DHT22;10808;48.010;11.326;2022-12-22T09:22:54;10.70;99.90
21298;DHT22;10808;48.010;11.326;2022-12-22T09:25:20;10.70;99.90
21298;DHT22;10808;48.010;11.326;2022-12-22T09:27:46;10.70;99.90
21298;DHT22;10808;48.010;11.326;2022-12-22T09:30:12;10.70;99.90
21298;DHT22;10808;48.010;11.326;2022-12-22T09:32:38;10.70;99.90
21298;DHT22;10808;48.010;11.326;2022-12-22T09:35:04;10.70;99.90
21298;DHT22;10808;48.010;11.326;2022-12-22T09:37:31;10.80;99.90
21298;DHT22;10808;48.010;11.326;2022-12-22T09:39:57;10.70;99.90
21298;DHT22;10808;48.010;11.326;2022-12-22T09:42:25;10.80;99.90
21298;DHT22;10808;48.010;11.326;2022-12-22T09:44:51;10.80;99.90
21298;DHT22;10808;48.010;11.326;2022-12-22T09:47:30;10.80;99.90
21298;DHT22;10808;48.010;11.326;2022-12-22T09:49:58;10.90;99.90
21298;DHT22;10808;48.010;11.326;2022-12-22T09:55:00;11.00;99.90
21298;DHT22;10808;48.010;11.326;2022-12-22T09:57:31;11.00;99.90
21298;DHT22;10808;48.010;11.326;2022-12-22T10:00:09;11.10;99.90
21298;DHT22;10808;48.010;11.326;2022-12-22T10:05:42;11.20;99.90
21298;DHT22;10808;48.010;11.326;2022-12-22T10:08:15;11.20;99.90
21298;DHT22;10808;48.010;11.326;2022-12-22T10:10:43;11.20;99.90
21298;DHT22;10808;48.010;11.326;2022-12-22T10:13:19;11.20;99.90
21298;DHT22;10808;48.010;11.326;2022-12-22T10:15:45;11.30;99.90
21298;DHT22;10808;48.010;11.326;2022-12-22T10:18:16;11.30;99.90
21298;DHT22;10808;48.010;11.326;2022-12-22T10:21:05;11.40;99.90
21298;DHT22;10808;48.010;11.326;2022-12-22T10:23:32;11.40;99.90
21298;DHT22;10808;48.010;11.326;2022-12-22T10:26:09;11.40;99.90
21298;DHT22;10808;48.010;11.326;2022-12-22T10:31:24;11.50;99.90
21298;DHT22;10808;48.010;11.326;2022-12-22T10:33:56;11.50;99.90
21298;DHT22;10808;48.010;11.326;2022-12-22T10:36:27;11.50;99.90
21298;DHT22;10808;48.010;11.326;2022-12-22T10:39:07;11.50;99.90
21298;DHT22;10808;48.010;11.326;2022-12-22T10:41:40;11.60;99.90
21298;DHT22;10808;48.010;11.326;2022-12-22T10:49:19;11.70;99.90
21298;DHT22;10808;48.010;11.326;2022-12-22T10:51:56;11.70;99.90
21298;DHT22;10808;48.010;11.326;2022-12-22T10:54:24;11.80;99.90
21298;DHT22;10808;48.010;11.326;2022-12-22T10:57:26;11.80;99.90
21298;DHT22;10808;48.010;11.326;2022-12-22T11:04:48;11.80;99.90
21298;DHT22;10808;48.010;11.326;2022-12-22T11:07:14;11.80;99.90
21298;DHT22;10808;48.010;11.326;2022-12-22T11:09:40;11.80;99.90
21298;DHT22;10808;48.010;11.326;2022-12-22T11:12:24;11.80;99.90
21298;DHT22;10808;48.010;11.326;2022-12-22T11:15:13;11.80;99.90
21298;DHT22;10808;48.010;11.326;2022-12-22T11:21:07;11.70;99.90
21298;DHT22;10808;48.010;11.326;2022-12-22T11:26:28;11.70;99.90
21298;DHT22;10808;48.010;11.326;2022-12-22T11:29:14;11.60;99.90
21298;DHT22;10808;48.010;11.326;2022-12-22T11:34:25;11.60;99.90
21298;DHT22;10808;48.010;11.326;2022-12-22T11:42:17;11.50;99.90
21298;DHT22;10808;48.010;11.326;2022-12-22T11:45:03;11.50;99.90
21298;DHT22;10808;48.010;11.326;2022-12-22T11:47:45;11.50;99.90
21298;DHT22;10808;48.010;11.326;2022-12-22T11:50:24;11.40;99.90
21298;DHT22;10808;48.010;11.326;2022-12-22T12:02:03;11.50;99.90
21298;DHT22;10808;48.010;11.326;2022-12-22T12:04:41;11.60;99.90
21298;DHT22;10808;48.010;11.326;2022-12-22T12:07:33;11.60;99.90
21298;DHT22;10808;48.010;11.326;2022-12-22T12:10:13;11.60;99.90
21298;DHT22;10808;48.010;11.326;2022-12-22T12:20:57;11.60;99.90
21298;DHT22;10808;48.010;11.326;2022-12-22T12:31:48;11.60;99.90
21298;DHT22;10808;48.010;11.326;2022-12-22T12:34:17;11.60;99.90
21298;DHT22;10808;48.010;11.326;2022-12-22T12:44:48;11.60;99.90
21298;DHT22;10808;48.010;11.326;2022-12-22T12:47:27;11.60;99.90
21298;DHT22;10808;48.010;11.326;2022-12-22T12:49:58;11.60;99.90
21298;DHT22;10808;48.010;11.326;2022-12-22T12:57:48;11.60;99.90
21298;DHT22;10808;48.010;11.326;2022-12-22T13:03:41;11.60;99.90
21298;DHT22;10808;48.010;11.326;2022-12-22T13:06:09;11.60;99.90
21298;DHT22;10808;48.010;11.326;2022-12-22T13:11:35;11.60;99.90
21298;DHT22;10808;48.010;11.326;2022-12-22T13:14:01;11.60;99.90
21298;DHT22;10808;48.010;11.326;2022-12-22T13:16:30;11.60;99.90
21298;DHT22;10808;48.010;11.326;2022-12-22T13:19:10;11.60;99.90
21298;DHT22;10808;48.010;11.326;2022-12-22T13:21:43;11.60;99.90
21298;DHT22;10808;48.010;11.326;2022-12-22T13:24:14;11.60;99.90
21298;DHT22;10808;48.010;11.326;2022-12-22T13:26:41;11.50;99.90
21298;DHT22;10808;48.010;11.326;2022-12-22T13:31:44;11.50;99.90
21298;DHT22;10808;48.010;11.326;2022-12-22T13:34:37;11.60;99.90
21298;DHT22;10808;48.010;11.326;2022-12-22T13:37:36;11.60;99.90
21298;DHT22;10808;48.010;11.326;2022-12-22T13:40:16;11.50;99.90
21298;DHT22;10808;48.010;11.326;2022-12-22T13:42:51;11.60;99.90
21298;DHT22;10808;48.010;11.326;2022-12-22T13:45:41;11.60;99.90
21298;DHT22;10808;48.010;11.326;2022-12-22T13:48:15;11.60;99.90
21298;DHT22;10808;48.010;11.326;2022-12-22T13:50:54;11.60;99.90
21298;DHT22;10808;48.010;11.326;2022-12-22T13:53:35;11.60;99.90
21298;DHT22;10808;48.010;11.326;2022-12-22T13:56:05;11.60;99.90
21298;DHT22;10808;48.010;11.326;2022-12-22T13:58:36;11.70;99.90
21298;DHT22;10808;48.010;11.326;2022-12-22T14:03:44;11.60;99.90
21298;DHT22;10808;48.010;11.326;2022-12-22T14:06:22;11.60;99.90
21298;DHT22;10808;48.010;11.326;2022-12-22T14:08:50;11.60;99.90
21298;DHT22;10808;48.010;11.326;2022-12-22T14:11:16;11.60;99.90
21298;DHT22;10808;48.010;11.326;2022-12-22T14:13:42;11.60;99.90
21298;DHT22;10808;48.010;11.326;2022-12-22T14:16:12;11.60;99.90
21298;DHT22;10808;48.010;11.326;2022-12-22T14:18:39;11.60;99.90
21298;DHT22;10808;48.010;11.326;2022-12-22T14:21:06;11.60;99.90
21298;DHT22;10808;48.010;11.326;2022-12-22T14:23:36;11.60;99.90
21298;DHT22;10808;48.010;11.326;2022-12-22T14:26:05;11.50;99.90
21298;DHT22;10808;48.010;11.326;2022-12-22T14:28:38;11.50;99.90
21298;DHT22;10808;48.010;11.326;2022-12-22T14:31:06;11.50;99.90
21298;DHT22;10808;48.010;11.326;2022-12-22T14:33:33;11.50;99.90
21298;DHT22;10808;48.010;11.326;2022-12-22T14:36:19;11.50;99.90
21298;DHT22;10808;48.010;11.326;2022-12-22T14:38:56;11.50;99.90
21298;DHT22;10808;48.010;11.326;2022-12-22T14:41:28;11.50;99.90
21298;DHT22;10808;48.010;11.326;2022-12-22T14:44:31;11.50;99.90
21298;DHT22;10808;48.010;11.326;2022-12-22T14:52:54;11.50;99.90
21298;DHT22;10808;48.010;11.326;2022-12-22T14:57:54;11.50;99.90
21298;DHT22;10808;48.010;11.326;2022-12-22T15:03:05;11.50;99.90
21298;DHT22;10808;48.010;11.326;2022-12-22T15:05:35;11.50;99.90
21298;DHT22;10808;48.010;11.326;2022-12-22T15:08:36;11.50;99.90
21298;DHT22;10808;48.010;11.326;2022-12-22T15:11:08;11.50;99.90
21298;DHT22;10808;48.010;11.326;2022-12-22T15:13:35;11.50;99.90
21298;DHT22;10808;48.010;11.326;2022-12-22T15:16:01;11.50;99.90
21298;DHT22;10808;48.010;11.326;2022-12-22T15:18:27;11.40;99.90
21298;DHT22;10808;48.010;11.326;2022-12-22T15:20:55;11.40;99.90
21298;DHT22;10808;48.010;11.326;2022-12-22T15:23:21;11.40;99.90
21298;DHT22;10808;48.010;11.326;2022-12-22T15:25:47;11.40;99.90
21298;DHT22;10808;48.010;11.326;2022-12-22T15:28:13;11.40;99.90
21298;DHT22;10808;48.010;11.326;2022-12-22T15:30:40;11.40;99.90
21298;DHT22;10808;48.010;11.326;2022-12-22T15:33:15;11.30;99.90
21298;DHT22;10808;48.010;11.326;2022-12-22T15:35:42;11.30;99.90
21298;DHT22;10808;48.010;11.326;2022-12-22T15:38:12;11.30;99.90
21298;DHT22;10808;48.010;11.326;2022-12-22T15:40:39;11.30;99.90
21298;DHT22;10808;48.010;11.326;2022-12-22T15:43:06;11.20;99.90
21298;DHT22;10808;48.010;11.326;2022-12-22T15:45:32;11.20;99.90
21298;DHT22;10808;48.010;11.326;2022-12-22T15:48:01;11.20;99.90
21298;DHT22;10808;48.010;11.326;2022-12-22T15:50:31;11.20;99.90
21298;DHT22;10808;48.010;11.326;2022-12-22T15:53:03;11.20;99.90
21298;DHT22;10808;48.010;11.326;2022-12-22T15:55:42;11.20;99.90
21298;DHT22;10808;48.010;11.326;2022-12-22T15:58:12;11.20;99.90
21298;DHT22;10808;48.010;11.326;2022-12-22T16:00:38;11.10;99.90
21298;DHT22;10808;48.010;11.326;2022-12-22T16:03:05;11.20;99.90
21298;DHT22;10808;48.010;11.326;2022-12-22T16:05:32;11.10;99.90
21298;DHT22;10808;48.010;11.326;2022-12-22T16:07:59;11.10;99.90
21298;DHT22;10808;48.010;11.326;2022-12-22T16:10:28;11.10;99.90
21298;DHT22;10808;48.010;11.326;2022-12-22T16:12:56;11.10;99.90
21298;DHT22;10808;48.010;11.326;2022-12-22T16:15:28;11.10;99.90
21298;DHT22;10808;48.010;11.326;2022-12-22T16:17:58;11.10;99.90
21298;DHT22;10808;48.010;11.326;2022-12-22T16:20:38;11.00;99.90
21298;DHT22;10808;48.010;11.326;2022-12-22T16:23:06;11.00;99.90
21298;DHT22;10808;48.010;11.326;2022-12-22T16:25:37;11.00;99.90
21298;DHT22;10808;48.010;11.326;2022-12-22T16:28:05;11.00;99.90
21298;DHT22;10808;48.010;11.326;2022-12-22T16:30:32;11.00;99.90
21298;DHT22;10808;48.010;11.326;2022-12-22T16:32:59;10.90;99.90
21298;DHT22;10808;48.010;11.326;2022-12-22T16:35:29;10.90;99.90
21298;DHT22;10808;48.010;11.326;2022-12-22T16:37:57;10.90;99.90
21298;DHT22;10808;48.010;11.326;2022-12-22T16:40:24;10.90;99.90
21298;DHT22;10808;48.010;11.326;2022-12-22T16:42:58;10.90;99.90
21298;DHT22;10808;48.010;11.326;2022-12-22T16:45:26;10.90;99.90
21298;DHT22;10808;48.010;11.326;2022-12-22T16:47:56;10.90;99.90
21298;DHT22;10808;48.010;11.326;2022-12-22T16:50:24;10.90;99.90
21298;DHT22;10808;48.010;11.326;2022-12-22T16:52:59;10.90;99.90
21298;DHT22;10808;48.010;11.326;2022-12-22T16:55:26;11.00;99.90
21298;DHT22;10808;48.010;11.326;2022-12-22T16:57:52;11.00;99.90
21298;DHT22;10808;48.010;11.326;2022-12-22T17:00:21;11.00;99.90
21298;DHT22;10808;48.010;11.326;2022-12-22T17:02:50;11.00;99.90
21298;DHT22;10808;48.010;11.326;2022-12-22T17:05:44;11.00;99.90
21298;DHT22;10808;48.010;11.326;2022-12-22T17:08:24;11.00;99.90
21298;DHT22;10808;48.010;11.326;2022-12-22T17:10:51;11.00;99.90
21298;DHT22;10808;48.010;11.326;2022-12-22T17:13:18;11.00;99.90
21298;DHT22;10808;48.010;11.326;2022-12-22T17:15:45;11.00;99.90
21298;DHT22;10808;48.010;11.326;2022-12-22T17:18:17;11.00;99.90
21298;DHT22;10808;48.010;11.326;2022-12-22T17:20:44;11.00;99.90
21298;DHT22;10808;48.010;11.326;2022-12-22T17:23:31;11.00;99.90
21298;DHT22;10808;48.010;11.326;2022-12-22T17:26:00;11.00;99.90
21298;DHT22;10808;48.010;11.326;2022-12-22T17:28:27;11.00;99.90
21298;DHT22;10808;48.010;11.326;2022-12-22T17:30:53;11.00;99.90
21298;DHT22;10808;48.010;11.326;2022-12-22T17:33:20;10.90;99.90
21298;DHT22;10808;48.010;11.326;2022-12-22T17:35:46;11.00;99.90
21298;DHT22;10808;48.010;11.326;2022-12-22T17:41:16;11.00;99.90
21298;DHT22;10808;48.010;11.326;2022-12-22T17:43:42;11.00;99.90
21298;DHT22;10808;48.010;11.326;2022-12-22T17:46:13;11.00;99.90
21298;DHT22;10808;48.010;11.326;2022-12-22T17:48:40;10.90;99.90
21298;DHT22;10808;48.010;11.326;2022-12-22T17:51:14;10.90;99.90
21298;DHT22;10808;48.010;11.326;2022-12-22T17:53:40;10.90;99.90
21298;DHT22;10808;48.010;11.326;2022-12-22T17:56:12;10.90;99.90
21298;DHT22;10808;48.010;11.326;2022-12-22T17:58:38;10.90;99.90
21298;DHT22;10808;48.010;11.326;2022-12-22T18:01:05;10.90;99.90
21298;DHT22;10808;48.010;11.326;2022-12-22T18:03:31;10.90;99.90